sensor_id;sensor_type;location;lat;lon;timestamp;noise_LAeq;noise_LA_min;noise_LA_max;noise_LA01;noise_LA95
72466;Laerm;60471;52.150;4.508;2023-08-01T00:00:52;56.19;41.19;68.73;;
72466;Laerm;60471;52.150;4.508;2023-08-01T00:03:18;56.10;41.58;68.32;;
72466;Laerm;60471;52.150;4.508;2023-08-01T00:05:44;55.94;41.29;68.06;;
72466;Laerm;60471;52.150;4.508;2023-08-01T00:08:11;55.85;42.12;67.78;;
72466;Laerm;60471;52.150;4.508;2023-08-01T00:10:39;55.88;41.24;68.62;;
72466;Laerm;60471;52.150;4.508;2023-08-01T00:13:06;55.63;40.56;67.50;;
72466;Laerm;60471;52.150;4.508;2023-08-01T00:15:32;55.69;42.19;67.52;;
72466;Laerm;60471;52.150;4.508;2023-08-01T00:17:58;55.64;40.68;68.09;;
72466;Laerm;60471;52.150;4.508;2023-08-01T00:20:25;55.41;40.69;67.47;;
72466;Laerm;60471;52.150;4.508;2023-08-01T00:22:51;54.93;39.48;67.14;;
72466;Laerm;60471;52.150;4.508;2023-08-01T00:25:18;54.97;39.93;67.36;;
72466;Laerm;60471;52.150;4.508;2023-08-01T00:27:44;55.42;38.07;67.54;;
72466;Laerm;60471;52.150;4.508;2023-08-01T00:30:10;55.09;40.80;67.79;;
72466;Laerm;60471;52.150;4.508;2023-08-01T00:32:37;55.41;40.83;68.66;;
72466;Laerm;60471;52.150;4.508;2023-08-01T00:35:04;55.22;38.94;68.07;;
72466;Laerm;60471;52.150;4.508;2023-08-01T00:37:30;55.10;40.16;67.81;;
72466;Laerm;60471;52.150;4.508;2023-08-01T00:39:56;55.44;39.72;67.29;;
72466;Laerm;60471;52.150;4.508;2023-08-01T00:42:23;55.31;40.53;67.18;;
72466;Laerm;60471;52.150;4.508;2023-08-01T00:44:49;54.39;40.34;67.37;;
72466;Laerm;60471;52.150;4.508;2023-08-01T00:47:17;54.78;40.88;67.39;;
72466;Laerm;60471;52.150;4.508;2023-08-01T00:49:44;54.75;41.23;67.02;;
72466;Laerm;60471;52.150;4.508;2023-08-01T00:52:10;55.11;41.38;67.02;;
72466;Laerm;60471;52.150;4.508;2023-08-01T00:54:37;53.35;42.31;64.99;;
72466;Laerm;60471;52.150;4.508;2023-08-01T00:57:04;54.90;42.22;68.28;;
72466;Laerm;60471;52.150;4.508;2023-08-01T00:59:31;53.12;40.16;65.75;;
72466;Laerm;60471;52.150;4.508;2023-08-01T01:01:59;52.75;40.93;65.10;;
72466;Laerm;60471;52.150;4.508;2023-08-01T01:04:27;53.41;40.87;66.11;;
72466;Laerm;60471;52.150;4.508;2023-08-01T01:07:06;54.48;41.26;67.43;;
72466;Laerm;60471;52.150;4.508;2023-08-01T01:09:32;55.49;40.90;67.54;;
72466;Laerm;60471;52.150;4.508;2023-08-01T01:11:59;54.62;40.18;67.63;;
72466;Laerm;60471;52.150;4.508;2023-08-01T01:14:27;54.34;43.16;64.95;;
72466;Laerm;60471;52.150;4.508;2023-08-01T01:16:55;55.02;41.25;67.20;;
72466;Laerm;60471;52.150;4.508;2023-08-01T01:19:21;53.72;41.37;66.99;;
72466;Laerm;60471;52.150;4.508;2023-08-01T01:21:48;53.30;40.24;64.67;;
72466;Laerm;60471;52.150;4.508;2023-08-01T01:24:15;53.88;44.81;64.07;;
72466;Laerm;60471;52.150;4.508;2023-08-01T01:26:43;53.53;41.48;64.66;;
72466;Laerm;60471;52.150;4.508;2023-08-01T01:29:11;54.54;43.12;67.81;;
72466;Laerm;60471;52.150;4.508;2023-08-01T01:31:38;54.04;42.81;65.03;;
72466;Laerm;60471;52.150;4.508;2023-08-01T01:34:05;54.79;46.80;64.80;;
72466;Laerm;60471;52.150;4.508;2023-08-01T01:36:32;55.85;44.30;67.73;;
72466;Laerm;60471;52.150;4.508;2023-08-01T01:38:58;53.47;42.45;65.62;;
72466;Laerm;60471;52.150;4.508;2023-08-01T01:41:24;55.50;42.40;66.76;;
72466;Laerm;60471;52.150;4.508;2023-08-01T01:43:51;54.79;40.71;67.79;;
72466;Laerm;60471;52.150;4.508;2023-08-01T01:46:17;52.78;40.52;64.28;;
72466;Laerm;60471;52.150;4.508;2023-08-01T01:48:43;55.52;40.54;72.00;;
72466;Laerm;60471;52.150;4.508;2023-08-01T01:51:09;52.91;40.86;64.52;;
72466;Laerm;60471;52.150;4.508;2023-08-01T01:53:36;56.41;39.41;67.68;;
72466;Laerm;60471;52.150;4.508;2023-08-01T01:56:02;54.69;39.87;67.44;;
72466;Laerm;60471;52.150;4.508;2023-08-01T01:58:28;53.91;43.00;67.54;;
72466;Laerm;60471;52.150;4.508;2023-08-01T02:00:54;53.65;44.53;64.58;;
72466;Laerm;60471;52.150;4.508;2023-08-01T02:03:21;53.66;43.95;65.12;;
72466;Laerm;60471;52.150;4.508;2023-08-01T02:05:47;55.13;44.74;67.00;;
72466;Laerm;60471;52.150;4.508;2023-08-01T02:08:13;54.29;44.32;68.98;;
72466;Laerm;60471;52.150;4.508;2023-08-01T02:10:39;53.68;43.61;65.74;;
72466;Laerm;60471;52.150;4.508;2023-08-01T02:13:06;55.05;44.36;68.04;;
72466;Laerm;60471;52.150;4.508;2023-08-01T02:15:34;55.33;43.83;67.28;;
72466;Laerm;60471;52.150;4.508;2023-08-01T02:18:00;53.89;45.02;64.41;;
72466;Laerm;60471;52.150;4.508;2023-08-01T02:20:26;54.41;44.94;64.46;;
72466;Laerm;60471;52.150;4.508;2023-08-01T02:22:55;57.09;46.08;73.57;;
72466;Laerm;60471;52.150;4.508;2023-08-01T02:25:21;57.61;46.82;80.72;;
72466;Laerm;60471;52.150;4.508;2023-08-01T02:27:47;55.57;44.58;77.70;;
72466;Laerm;60471;52.150;4.508;2023-08-01T02:30:13;54.42;44.85;65.42;;
72466;Laerm;60471;52.150;4.508;2023-08-01T02:32:39;53.25;43.22;64.76;;
72466;Laerm;60471;52.150;4.508;2023-08-01T02:35:06;53.67;44.17;64.50;;
72466;Laerm;60471;52.150;4.508;2023-08-01T02:37:32;54.77;45.45;64.68;;
72466;Laerm;60471;52.150;4.508;2023-08-01T02:39:58;56.47;47.54;67.50;;
72466;Laerm;60471;52.150;4.508;2023-08-01T02:42:25;53.99;46.56;64.41;;
72466;Laerm;60471;52.150;4.508;2023-08-01T02:44:51;53.55;44.79;64.56;;
72466;Laerm;60471;52.150;4.508;2023-08-01T02:47:17;55.91;47.67;81.03;;
72466;Laerm;60471;52.150;4.508;2023-08-01T02:49:44;55.81;49.02;65.41;;
72466;Laerm;60471;52.150;4.508;2023-08-01T02:52:10;56.38;48.00;69.44;;
72466;Laerm;60471;52.150;4.508;2023-08-01T02:54:36;54.46;46.93;64.93;;
72466;Laerm;60471;52.150;4.508;2023-08-01T02:57:02;54.08;44.38;65.33;;
72466;Laerm;60471;52.150;4.508;2023-08-01T02:59:29;55.95;46.81;67.05;;
72466;Laerm;60471;52.150;4.508;2023-08-01T03:01:55;54.96;46.88;66.18;;
72466;Laerm;60471;52.150;4.508;2023-08-01T03:04:21;55.48;47.15;65.16;;
72466;Laerm;60471;52.150;4.508;2023-08-01T03:06:47;55.51;45.96;68.63;;
72466;Laerm;60471;52.150;4.508;2023-08-01T03:09:13;53.81;44.67;65.09;;
72466;Laerm;60471;52.150;4.508;2023-08-01T03:11:40;53.32;44.44;64.40;;
72466;Laerm;60471;52.150;4.508;2023-08-01T03:14:06;55.27;46.75;71.83;;
72466;Laerm;60471;52.150;4.508;2023-08-01T03:16:33;55.06;46.84;66.45;;
72466;Laerm;60471;52.150;4.508;2023-08-01T03:18:59;55.71;48.27;69.38;;
72466;Laerm;60471;52.150;4.508;2023-08-01T03:21:33;56.47;48.72;70.86;;
72466;Laerm;60471;52.150;4.508;2023-08-01T03:24:02;56.23;48.20;78.82;;
72466;Laerm;60471;52.150;4.508;2023-08-01T03:26:28;56.08;48.27;67.29;;
72466;Laerm;60471;52.150;4.508;2023-08-01T03:28:55;55.92;46.70;67.15;;
72466;Laerm;60471;52.150;4.508;2023-08-01T03:31:22;57.69;46.27;73.63;;
72466;Laerm;60471;52.150;4.508;2023-08-01T03:33:49;56.39;47.58;67.51;;
72466;Laerm;60471;52.150;4.508;2023-08-01T03:36:15;56.57;47.08;68.11;;
72466;Laerm;60471;52.150;4.508;2023-08-01T03:38:41;55.77;46.67;66.19;;
72466;Laerm;60471;52.150;4.508;2023-08-01T03:41:07;56.56;46.63;66.96;;
72466;Laerm;60471;52.150;4.508;2023-08-01T03:43:34;56.63;48.30;67.83;;
72466;Laerm;60471;52.150;4.508;2023-08-01T03:46:01;56.32;47.01;68.22;;
72466;Laerm;60471;52.150;4.508;2023-08-01T03:48:27;55.70;46.73;68.79;;
72466;Laerm;60471;52.150;4.508;2023-08-01T03:50:53;54.80;46.84;65.70;;
72466;Laerm;60471;52.150;4.508;2023-08-01T03:53:20;54.99;45.55;64.45;;
72466;Laerm;60471;52.150;4.508;2023-08-01T03:55:47;55.54;48.08;65.94;;
72466;Laerm;60471;52.150;4.508;2023-08-01T03:58:15;55.83;47.25;67.64;;
72466;Laerm;60471;52.150;4.508;2023-08-01T04:00:41;53.98;46.26;65.26;;
72466;Laerm;60471;52.150;4.508;2023-08-01T04:03:07;54.83;46.80;64.75;;
72466;Laerm;60471;52.150;4.508;2023-08-01T04:05:33;56.30;45.69;67.20;;
72466;Laerm;60471;52.150;4.508;2023-08-01T04:08:00;55.78;46.95;67.97;;
72466;Laerm;60471;52.150;4.508;2023-08-01T04:10:26;56.81;48.00;67.25;;
72466;Laerm;60471;52.150;4.508;2023-08-01T04:12:52;57.13;49.00;68.58;;
72466;Laerm;60471;52.150;4.508;2023-08-01T04:15:19;56.68;48.86;67.75;;
72466;Laerm;60471;52.150;4.508;2023-08-01T04:17:45;58.39;48.88;68.91;;
72466;Laerm;60471;52.150;4.508;2023-08-01T04:20:11;57.12;48.88;67.18;;
72466;Laerm;60471;52.150;4.508;2023-08-01T04:22:38;56.33;49.06;67.21;;
72466;Laerm;60471;52.150;4.508;2023-08-01T04:25:05;57.26;48.95;67.76;;
72466;Laerm;60471;52.150;4.508;2023-08-01T04:27:31;57.17;48.32;73.11;;
72466;Laerm;60471;52.150;4.508;2023-08-01T04:29:58;58.87;50.14;68.52;;
72466;Laerm;60471;52.150;4.508;2023-08-01T04:32:24;57.50;49.13;67.96;;
72466;Laerm;60471;52.150;4.508;2023-08-01T04:34:50;57.77;50.40;67.19;;
72466;Laerm;60471;52.150;4.508;2023-08-01T04:37:16;56.68;49.64;66.41;;
72466;Laerm;60471;52.150;4.508;2023-08-01T04:39:46;57.21;48.40;68.29;;
72466;Laerm;60471;52.150;4.508;2023-08-01T04:42:13;56.91;49.00;68.46;;
72466;Laerm;60471;52.150;4.508;2023-08-01T04:44:39;58.41;51.20;67.69;;
72466;Laerm;60471;52.150;4.508;2023-08-01T04:47:05;57.80;50.47;67.68;;
72466;Laerm;60471;52.150;4.508;2023-08-01T04:49:32;57.26;50.12;67.46;;
72466;Laerm;60471;52.150;4.508;2023-08-01T04:51:58;56.65;49.13;64.70;;
72466;Laerm;60471;52.150;4.508;2023-08-01T04:54:24;55.82;49.18;66.17;;
72466;Laerm;60471;52.150;4.508;2023-08-01T04:56:50;56.84;49.58;65.01;;
72466;Laerm;60471;52.150;4.508;2023-08-01T04:59:16;57.06;51.16;64.20;;
72466;Laerm;60471;52.150;4.508;2023-08-01T05:01:43;58.10;51.60;67.88;;
72466;Laerm;60471;52.150;4.508;2023-08-01T05:04:09;58.43;51.77;67.95;;
72466;Laerm;60471;52.150;4.508;2023-08-01T05:06:35;58.28;51.63;71.85;;
72466;Laerm;60471;52.150;4.508;2023-08-01T05:09:02;57.02;49.62;65.30;;
72466;Laerm;60471;52.150;4.508;2023-08-01T05:11:28;57.87;52.20;72.20;;
72466;Laerm;60471;52.150;4.508;2023-08-01T05:13:55;58.68;49.43;68.19;;
72466;Laerm;60471;52.150;4.508;2023-08-01T05:16:21;58.15;50.21;68.08;;
72466;Laerm;60471;52.150;4.508;2023-08-01T05:18:47;57.96;49.50;69.99;;
72466;Laerm;60471;52.150;4.508;2023-08-01T05:21:13;58.46;50.72;67.52;;
72466;Laerm;60471;52.150;4.508;2023-08-01T05:23:39;58.68;51.26;67.89;;
72466;Laerm;60471;52.150;4.508;2023-08-01T05:26:06;58.71;50.03;68.80;;
72466;Laerm;60471;52.150;4.508;2023-08-01T05:28:32;58.33;49.52;68.22;;
72466;Laerm;60471;52.150;4.508;2023-08-01T05:30:58;57.57;49.07;67.82;;
72466;Laerm;60471;52.150;4.508;2023-08-01T05:33:24;58.22;48.47;67.20;;
72466;Laerm;60471;52.150;4.508;2023-08-01T05:35:51;58.42;48.67;68.05;;
72466;Laerm;60471;52.150;4.508;2023-08-01T05:38:17;58.53;50.01;70.16;;
72466;Laerm;60471;52.150;4.508;2023-08-01T05:40:43;57.81;50.63;67.90;;
72466;Laerm;60471;52.150;4.508;2023-08-01T05:43:09;59.32;48.38;68.84;;
72466;Laerm;60471;52.150;4.508;2023-08-01T05:45:35;59.75;50.52;68.57;;
72466;Laerm;60471;52.150;4.508;2023-08-01T05:48:02;59.29;52.46;69.14;;
72466;Laerm;60471;52.150;4.508;2023-08-01T05:50:28;58.31;50.90;66.28;;
72466;Laerm;60471;52.150;4.508;2023-08-01T05:52:55;57.93;50.40;66.73;;
72466;Laerm;60471;52.150;4.508;2023-08-01T05:55:21;56.92;50.74;67.59;;
72466;Laerm;60471;52.150;4.508;2023-08-01T05:57:47;58.92;50.61;67.13;;
72466;Laerm;60471;52.150;4.508;2023-08-01T06:00:15;58.15;49.53;67.56;;
72466;Laerm;60471;52.150;4.508;2023-08-01T06:02:41;58.74;51.33;66.00;;
72466;Laerm;60471;52.150;4.508;2023-08-01T06:05:08;58.55;51.47;73.16;;
72466;Laerm;60471;52.150;4.508;2023-08-01T06:07:34;58.09;50.67;77.25;;
72466;Laerm;60471;52.150;4.508;2023-08-01T06:10:00;60.00;50.86;81.61;;
72466;Laerm;60471;52.150;4.508;2023-08-01T06:12:27;58.99;51.20;72.07;;
72466;Laerm;60471;52.150;4.508;2023-08-01T06:14:53;58.43;50.73;64.96;;
72466;Laerm;60471;52.150;4.508;2023-08-01T06:17:19;57.96;51.55;66.66;;
72466;Laerm;60471;52.150;4.508;2023-08-01T06:19:45;58.56;51.01;67.68;;
72466;Laerm;60471;52.150;4.508;2023-08-01T06:22:12;57.70;50.34;69.50;;
72466;Laerm;60471;52.150;4.508;2023-08-01T06:24:38;59.22;52.54;68.76;;
72466;Laerm;60471;52.150;4.508;2023-08-01T06:27:05;58.46;50.57;68.89;;
72466;Laerm;60471;52.150;4.508;2023-08-01T06:29:31;58.94;51.69;70.52;;
72466;Laerm;60471;52.150;4.508;2023-08-01T06:31:58;58.44;50.58;67.89;;
72466;Laerm;60471;52.150;4.508;2023-08-01T06:34:24;60.51;52.81;78.61;;
72466;Laerm;60471;52.150;4.508;2023-08-01T06:36:51;59.36;51.69;73.49;;
72466;Laerm;60471;52.150;4.508;2023-08-01T06:39:17;60.26;52.25;75.20;;
72466;Laerm;60471;52.150;4.508;2023-08-01T06:41:43;59.23;52.38;67.32;;
72466;Laerm;60471;52.150;4.508;2023-08-01T06:44:09;60.04;53.60;69.28;;
72466;Laerm;60471;52.150;4.508;2023-08-01T06:46:35;58.68;52.44;71.79;;
72466;Laerm;60471;52.150;4.508;2023-08-01T06:49:02;58.75;50.89;68.42;;
72466;Laerm;60471;52.150;4.508;2023-08-01T06:51:28;58.84;52.52;67.51;;
72466;Laerm;60471;52.150;4.508;2023-08-01T06:53:54;61.32;54.80;73.24;;
72466;Laerm;60471;52.150;4.508;2023-08-01T06:56:20;59.97;53.43;72.64;;
72466;Laerm;60471;52.150;4.508;2023-08-01T06:58:48;60.77;53.87;69.65;;
72466;Laerm;60471;52.150;4.508;2023-08-01T07:01:14;59.62;52.07;78.54;;
72466;Laerm;60471;52.150;4.508;2023-08-01T07:03:40;57.93;51.10;67.20;;
72466;Laerm;60471;52.150;4.508;2023-08-01T07:06:06;57.39;49.77;64.88;;
72466;Laerm;60471;52.150;4.508;2023-08-01T07:08:32;57.37;49.81;65.59;;
72466;Laerm;60471;52.150;4.508;2023-08-01T07:10:59;60.37;53.33;74.50;;
72466;Laerm;60471;52.150;4.508;2023-08-01T07:13:25;60.28;54.01;75.04;;
72466;Laerm;60471;52.150;4.508;2023-08-01T07:15:52;60.62;51.80;75.40;;
72466;Laerm;60471;52.150;4.508;2023-08-01T07:18:18;58.69;51.52;66.40;;
72466;Laerm;60471;52.150;4.508;2023-08-01T07:20:45;57.35;50.29;66.49;;
72466;Laerm;60471;52.150;4.508;2023-08-01T07:23:11;58.37;51.67;68.01;;
72466;Laerm;60471;52.150;4.508;2023-08-01T07:25:37;60.83;53.09;75.87;;
72466;Laerm;60471;52.150;4.508;2023-08-01T07:28:03;59.36;51.86;71.04;;
72466;Laerm;60471;52.150;4.508;2023-08-01T07:30:30;57.93;51.54;71.13;;
72466;Laerm;60471;52.150;4.508;2023-08-01T07:32:56;62.71;54.64;81.50;;
72466;Laerm;60471;52.150;4.508;2023-08-01T07:35:22;62.43;54.67;87.59;;
72466;Laerm;60471;52.150;4.508;2023-08-01T07:37:48;59.59;52.73;77.46;;
72466;Laerm;60471;52.150;4.508;2023-08-01T07:40:14;60.50;53.53;77.61;;
72466;Laerm;60471;52.150;4.508;2023-08-01T07:42:41;60.08;51.68;67.95;;
72466;Laerm;60471;52.150;4.508;2023-08-01T07:45:07;59.94;53.18;66.38;;
72466;Laerm;60471;52.150;4.508;2023-08-01T07:47:34;60.46;52.34;79.15;;
72466;Laerm;60471;52.150;4.508;2023-08-01T07:50:00;59.75;53.19;74.74;;
72466;Laerm;60471;52.150;4.508;2023-08-01T07:52:26;59.29;52.80;72.33;;
72466;Laerm;60471;52.150;4.508;2023-08-01T07:54:53;60.84;53.29;76.24;;
72466;Laerm;60471;52.150;4.508;2023-08-01T07:57:19;59.62;53.39;72.63;;
72466;Laerm;60471;52.150;4.508;2023-08-01T07:59:45;60.58;54.55;76.71;;
72466;Laerm;60471;52.150;4.508;2023-08-01T08:02:12;60.38;53.10;76.20;;
72466;Laerm;60471;52.150;4.508;2023-08-01T08:04:38;60.61;52.56;68.74;;
72466;Laerm;60471;52.150;4.508;2023-08-01T08:07:05;58.46;51.95;66.29;;
72466;Laerm;60471;52.150;4.508;2023-08-01T08:09:31;58.41;51.18;72.51;;
72466;Laerm;60471;52.150;4.508;2023-08-01T08:11:57;58.82;50.97;69.14;;
72466;Laerm;60471;52.150;4.508;2023-08-01T08:14:23;59.80;52.73;79.87;;
72466;Laerm;60471;52.150;4.508;2023-08-01T08:16:50;59.32;53.43;80.13;;
72466;Laerm;60471;52.150;4.508;2023-08-01T08:19:17;58.89;51.81;77.65;;
72466;Laerm;60471;52.150;4.508;2023-08-01T08:21:43;59.94;52.58;77.78;;
72466;Laerm;60471;52.150;4.508;2023-08-01T08:24:09;58.00;50.08;67.19;;
72466;Laerm;60471;52.150;4.508;2023-08-01T08:26:36;57.00;49.03;74.12;;
72466;Laerm;60471;52.150;4.508;2023-08-01T08:29:05;60.38;53.12;77.62;;
72466;Laerm;60471;52.150;4.508;2023-08-01T08:31:31;60.10;55.09;70.16;;
72466;Laerm;60471;52.150;4.508;2023-08-01T08:33:57;59.57;52.46;67.63;;
72466;Laerm;60471;52.150;4.508;2023-08-01T08:36:24;59.08;52.97;69.91;;
72466;Laerm;60471;52.150;4.508;2023-08-01T08:38:50;59.21;53.48;73.82;;
72466;Laerm;60471;52.150;4.508;2023-08-01T08:41:27;59.62;53.27;70.45;;
72466;Laerm;60471;52.150;4.508;2023-08-01T08:43:56;60.77;51.32;77.04;;
72466;Laerm;60471;52.150;4.508;2023-08-01T08:46:29;61.38;54.09;77.90;;
72466;Laerm;60471;52.150;4.508;2023-08-01T08:48:57;58.81;50.34;69.83;;
72466;Laerm;60471;52.150;4.508;2023-08-01T08:51:26;59.50;53.04;68.94;;
72466;Laerm;60471;52.150;4.508;2023-08-01T08:53:55;60.56;53.15;80.19;;
72466;Laerm;60471;52.150;4.508;2023-08-01T08:56:23;59.46;53.38;72.25;;
72466;Laerm;60471;52.150;4.508;2023-08-01T08:58:50;60.00;53.00;67.58;;
72466;Laerm;60471;52.150;4.508;2023-08-01T09:01:18;58.86;52.97;65.46;;
72466;Laerm;60471;52.150;4.508;2023-08-01T09:03:45;60.69;53.58;73.21;;
72466;Laerm;60471;52.150;4.508;2023-08-01T09:06:16;62.90;54.86;84.31;;
72466;Laerm;60471;52.150;4.508;2023-08-01T09:09:02;59.94;52.91;74.56;;
72466;Laerm;60471;52.150;4.508;2023-08-01T09:11:28;61.16;54.92;70.25;;
72466;Laerm;60471;52.150;4.508;2023-08-01T09:13:55;59.96;54.07;66.83;;
72466;Laerm;60471;52.150;4.508;2023-08-01T09:16:21;58.89;52.36;66.59;;
72466;Laerm;60471;52.150;4.508;2023-08-01T09:18:51;57.97;51.99;69.14;;
72466;Laerm;60471;52.150;4.508;2023-08-01T09:21:22;59.91;54.48;72.70;;
72466;Laerm;60471;52.150;4.508;2023-08-01T09:23:48;58.50;50.68;66.86;;
72466;Laerm;60471;52.150;4.508;2023-08-01T09:26:16;58.88;51.74;67.47;;
72466;Laerm;60471;52.150;4.508;2023-08-01T09:28:43;60.26;53.27;72.50;;
72466;Laerm;60471;52.150;4.508;2023-08-01T09:31:11;59.28;53.50;72.14;;
72466;Laerm;60471;52.150;4.508;2023-08-01T09:33:41;58.85;52.68;69.25;;
72466;Laerm;60471;52.150;4.508;2023-08-01T09:36:09;58.55;52.74;71.95;;
72466;Laerm;60471;52.150;4.508;2023-08-01T09:38:37;59.46;52.88;67.40;;
72466;Laerm;60471;52.150;4.508;2023-08-01T09:41:04;60.76;53.05;68.78;;
72466;Laerm;60471;52.150;4.508;2023-08-01T09:43:34;59.67;53.11;65.70;;
72466;Laerm;60471;52.150;4.508;2023-08-01T09:46:06;60.06;54.01;71.31;;
72466;Laerm;60471;52.150;4.508;2023-08-01T09:48:33;61.36;53.57;79.29;;
72466;Laerm;60471;52.150;4.508;2023-08-01T09:51:05;59.88;53.04;66.36;;
72466;Laerm;60471;52.150;4.508;2023-08-01T09:53:32;58.15;52.26;64.86;;
72466;Laerm;60471;52.150;4.508;2023-08-01T09:56:00;58.30;48.83;66.77;;
72466;Laerm;60471;52.150;4.508;2023-08-01T09:58:33;61.48;53.99;81.16;;
72466;Laerm;60471;52.150;4.508;2023-08-01T10:01:03;59.93;53.06;66.61;;
72466;Laerm;60471;52.150;4.508;2023-08-01T10:03:30;60.73;51.99;68.67;;
72466;Laerm;60471;52.150;4.508;2023-08-01T10:05:58;57.88;50.70;67.80;;
72466;Laerm;60471;52.150;4.508;2023-08-01T10:08:25;58.53;52.45;66.23;;
72466;Laerm;60471;52.150;4.508;2023-08-01T10:10:53;58.21;51.36;70.60;;
72466;Laerm;60471;52.150;4.508;2023-08-01T10:13:24;58.44;51.13;72.67;;
72466;Laerm;60471;52.150;4.508;2023-08-01T10:15:54;60.23;53.50;69.05;;
72466;Laerm;60471;52.150;4.508;2023-08-01T10:18:21;60.70;55.70;75.72;;
72466;Laerm;60471;52.150;4.508;2023-08-01T10:20:49;58.92;51.28;65.94;;
72466;Laerm;60471;52.150;4.508;2023-08-01T10:23:16;58.31;52.69;66.76;;
72466;Laerm;60471;52.150;4.508;2023-08-01T10:25:44;59.69;52.87;76.18;;
72466;Laerm;60471;52.150;4.508;2023-08-01T10:28:11;59.61;52.85;69.28;;
72466;Laerm;60471;52.150;4.508;2023-08-01T10:30:37;59.68;51.34;78.97;;
72466;Laerm;60471;52.150;4.508;2023-08-01T10:33:03;59.40;52.27;73.16;;
72466;Laerm;60471;52.150;4.508;2023-08-01T10:35:37;59.01;49.95;73.67;;
72466;Laerm;60471;52.150;4.508;2023-08-01T10:38:12;59.00;52.48;65.93;;
72466;Laerm;60471;52.150;4.508;2023-08-01T10:40:41;59.77;53.03;70.80;;
72466;Laerm;60471;52.150;4.508;2023-08-01T10:43:22;59.45;52.28;66.01;;
72466;Laerm;60471;52.150;4.508;2023-08-01T10:46:00;59.58;50.97;68.39;;
72466;Laerm;60471;52.150;4.508;2023-08-01T10:48:27;60.15;54.19;67.57;;
72466;Laerm;60471;52.150;4.508;2023-08-01T10:50:57;60.60;52.70;72.66;;
72466;Laerm;60471;52.150;4.508;2023-08-01T10:53:23;61.62;54.30;74.30;;
72466;Laerm;60471;52.150;4.508;2023-08-01T10:55:49;60.58;53.59;77.75;;
72466;Laerm;60471;52.150;4.508;2023-08-01T10:58:16;61.01;55.32;72.16;;
72466;Laerm;60471;52.150;4.508;2023-08-01T11:00:42;58.27;50.88;79.33;;
72466;Laerm;60471;52.150;4.508;2023-08-01T11:03:09;57.20;50.84;66.15;;
72466;Laerm;60471;52.150;4.508;2023-08-01T11:05:35;57.98;50.80;67.04;;
72466;Laerm;60471;52.150;4.508;2023-08-01T11:08:03;60.31;53.01;77.63;;
72466;Laerm;60471;52.150;4.508;2023-08-01T11:10:31;58.80;52.44;67.81;;
72466;Laerm;60471;52.150;4.508;2023-08-01T11:12:59;58.85;52.99;69.73;;
72466;Laerm;60471;52.150;4.508;2023-08-01T11:15:26;59.96;51.29;67.95;;
72466;Laerm;60471;52.150;4.508;2023-08-01T11:17:54;59.42;50.93;79.46;;
72466;Laerm;60471;52.150;4.508;2023-08-01T11:20:24;58.96;51.10;66.49;;
72466;Laerm;60471;52.150;4.508;2023-08-01T11:22:59;59.94;52.03;81.78;;
72466;Laerm;60471;52.150;4.508;2023-08-01T11:25:36;59.37;52.80;66.02;;
72466;Laerm;60471;52.150;4.508;2023-08-01T11:28:06;60.00;52.70;67.96;;
72466;Laerm;60471;52.150;4.508;2023-08-01T11:30:33;59.30;52.20;66.72;;
72466;Laerm;60471;52.150;4.508;2023-08-01T11:33:00;61.30;56.39;82.61;;
72466;Laerm;60471;52.150;4.508;2023-08-01T11:35:29;60.10;54.76;74.98;;
72466;Laerm;60471;52.150;4.508;2023-08-01T11:37:55;59.05;52.43;65.81;;
72466;Laerm;60471;52.150;4.508;2023-08-01T11:40:23;58.52;51.37;65.27;;
72466;Laerm;60471;52.150;4.508;2023-08-01T11:42:50;58.50;52.10;69.20;;
72466;Laerm;60471;52.150;4.508;2023-08-01T11:45:20;62.02;53.36;76.19;;
72466;Laerm;60471;52.150;4.508;2023-08-01T11:47:47;58.88;51.88;67.85;;
72466;Laerm;60471;52.150;4.508;2023-08-01T11:50:20;61.31;52.63;87.15;;
72466;Laerm;60471;52.150;4.508;2023-08-01T11:52:48;60.19;53.32;76.93;;
72466;Laerm;60471;52.150;4.508;2023-08-01T11:55:30;62.85;55.52;82.93;;
72466;Laerm;60471;52.150;4.508;2023-08-01T11:58:00;61.24;55.06;79.79;;
72466;Laerm;60471;52.150;4.508;2023-08-01T12:00:28;59.42;53.53;66.42;;
72466;Laerm;60471;52.150;4.508;2023-08-01T12:03:13;60.95;53.60;85.84;;
72466;Laerm;60471;52.150;4.508;2023-08-01T12:05:40;61.26;53.26;78.95;;
72466;Laerm;60471;52.150;4.508;2023-08-01T12:08:12;59.72;53.03;70.57;;
72466;Laerm;60471;52.150;4.508;2023-08-01T12:10:45;60.59;55.13;74.58;;
72466;Laerm;60471;52.150;4.508;2023-08-01T12:13:25;60.07;53.31;70.92;;
72466;Laerm;60471;52.150;4.508;2023-08-01T12:15:54;60.40;54.07;67.85;;
72466;Laerm;60471;52.150;4.508;2023-08-01T12:18:24;60.56;53.41;75.58;;
72466;Laerm;60471;52.150;4.508;2023-08-01T12:20:51;59.72;52.70;72.63;;
72466;Laerm;60471;52.150;4.508;2023-08-01T12:23:18;60.68;54.33;78.54;;
72466;Laerm;60471;52.150;4.508;2023-08-01T12:25:46;59.79;54.58;69.08;;
72466;Laerm;60471;52.150;4.508;2023-08-01T12:28:14;61.53;56.17;72.18;;
72466;Laerm;60471;52.150;4.508;2023-08-01T12:30:41;62.44;55.18;80.28;;
72466;Laerm;60471;52.150;4.508;2023-08-01T12:33:08;61.59;55.80;79.40;;
72466;Laerm;60471;52.150;4.508;2023-08-01T12:35:39;57.83;51.81;73.59;;
72466;Laerm;60471;52.150;4.508;2023-08-01T12:38:07;58.28;51.81;66.54;;
72466;Laerm;60471;52.150;4.508;2023-08-01T12:40:34;60.63;53.66;71.56;;
72466;Laerm;60471;52.150;4.508;2023-08-01T12:43:00;61.69;55.11;81.15;;
72466;Laerm;60471;52.150;4.508;2023-08-01T12:45:26;61.69;53.82;79.94;;
72466;Laerm;60471;52.150;4.508;2023-08-01T12:47:52;62.16;53.75;84.37;;
72466;Laerm;60471;52.150;4.508;2023-08-01T12:50:18;61.47;53.14;76.28;;
72466;Laerm;60471;52.150;4.508;2023-08-01T12:52:45;60.93;55.83;80.53;;
72466;Laerm;60471;52.150;4.508;2023-08-01T12:55:11;61.48;54.00;77.86;;
72466;Laerm;60471;52.150;4.508;2023-08-01T12:57:37;61.26;54.77;82.10;;
72466;Laerm;60471;52.150;4.508;2023-08-01T13:00:04;60.87;54.77;72.86;;
72466;Laerm;60471;52.150;4.508;2023-08-01T13:02:31;62.68;57.43;79.01;;
72466;Laerm;60471;52.150;4.508;2023-08-01T13:04:57;63.93;56.63;77.91;;
72466;Laerm;60471;52.150;4.508;2023-08-01T13:07:23;62.37;55.19;79.53;;
72466;Laerm;60471;52.150;4.508;2023-08-01T13:09:49;60.90;54.03;78.77;;
72466;Laerm;60471;52.150;4.508;2023-08-01T13:12:16;58.60;50.49;67.82;;
72466;Laerm;60471;52.150;4.508;2023-08-01T13:14:42;62.57;55.45;74.94;;
72466;Laerm;60471;52.150;4.508;2023-08-01T13:17:08;60.55;54.08;73.61;;
72466;Laerm;60471;52.150;4.508;2023-08-01T13:19:34;61.19;54.75;79.79;;
72466;Laerm;60471;52.150;4.508;2023-08-01T13:22:00;59.84;51.93;68.64;;
72466;Laerm;60471;52.150;4.508;2023-08-01T13:24:27;61.14;53.03;74.09;;
72466;Laerm;60471;52.150;4.508;2023-08-01T13:26:53;60.77;53.75;79.19;;
72466;Laerm;60471;52.150;4.508;2023-08-01T13:29:20;60.75;52.88;78.12;;
72466;Laerm;60471;52.150;4.508;2023-08-01T13:31:46;60.23;53.20;74.02;;
72466;Laerm;60471;52.150;4.508;2023-08-01T13:34:12;60.34;54.94;73.86;;
72466;Laerm;60471;52.150;4.508;2023-08-01T13:36:38;60.28;54.29;68.71;;
72466;Laerm;60471;52.150;4.508;2023-08-01T13:39:04;62.35;56.10;76.34;;
72466;Laerm;60471;52.150;4.508;2023-08-01T13:41:32;62.02;53.74;79.21;;
72466;Laerm;60471;52.150;4.508;2023-08-01T13:43:59;59.80;53.45;74.73;;